Historyczne dane pomiarowe

Dodano dane terminowe – wersja testowa.

Dane z okresu 1951-2019

Wersja bazy: 1.34 [2019-03-16, lista zmian], aktualizacja planowana na 2019-04-15

Dane meteo z obszaru Polski uzyskane na podstawie danych udostępnionych przez Instytut Meteorologii i Gospodarki Wodnej – Państwowy Instytut Badawczy.

 

Wybierz Datę:    

       

TemperaturaWilgotnośćWiatrCiśnienieOpadyŚniegCzas trwania zjawisk
 Stacja t tx tn tng RH VA  wxwx mslp ppp RRR   cm mm wxwxwxwxwxwxwx
1983-08-14 14.3 20.0 10.6 10.1-- 5.7 4.3---- 0.0------------
1983-08-13 15.8 20.5 13.2 11.8-- 6.7 2.7---- 3.8------------
1983-08-12 18.4 24.5 15.4 15.1-- 6.3 2.0---- 0.0------------
1983-08-11 18.7 21.0 15.2 13.6-- 7.3 2.0---- 3.8------------
1983-08-10 18.3 23.8 12.7 9.8-- 5.7 1.7---- 9.1------------
1983-08-09 19.5 25.5 14.7 11.6-- 5.0 1.0---- 0.0------------
1983-08-08 18.3 25.7 15.0 11.1-- 5.0 3.0---- 4.4------------
1983-08-07 17.9 24.6 14.4 14.6-- 7.3 1.0---- 7.0------------
1983-08-06 15.0 21.0 7.1 4.6-- 6.7 1.7---- 6.0------------
1983-08-05 13.9 17.0 10.2 10.1-- 6.3 1.3---- 0.0------------
1983-08-04 14.8 25.0 11.7 12.4-- 8.0 2.7---- 3.6------------
1983-08-03 21.3 27.9 14.7 12.1-- 4.7 1.0---- 0.0------------
1983-08-02 20.5 28.1 13.4 10.6-- 1.0 2.3---- 0.0------------
1983-08-01 17.7 25.4 8.2 6.1-- 0.0 1.0---- 0.0------------
1983-07-31 17.8 22.8 10.7 8.6-- 5.0 1.3---- 0.0------------
1983-07-30 17.4 20.9 12.4 11.1-- 5.3 2.3---- 0.5------------
1983-07-29 19.3 24.2 16.6 11.4-- 4.0 2.3---- 0.0------------
1983-07-28 21.9 26.4 16.2 14.1-- 5.0 1.3---- 0.0------------
1983-07-27 21.1 28.4 16.0 13.1-- 0.3 0.7---- 1.2------------
1983-07-26 18.9 25.4 13.6 12.1-- 6.3 2.3---- 0.0------------
1983-07-25 15.4 19.6 10.4 8.6-- 6.7 2.3---- 0.0------------
1983-07-24 15.5 19.5 12.6 11.1-- 6.3 1.3---- 4.7------------
1983-07-23 14.2 16.4 11.2 10.1-- 7.7 3.0---- 8.0------------
1983-07-22 13.5 17.0 9.6 8.1-- 8.0 4.0---- 0.6------------
1983-07-21 12.4 16.2 9.2 8.1-- 6.7 3.3---- 1.4------------
1983-07-20 16.6 24.5 12.7 11.6-- 6.3 3.7---- 2.2------------
1983-07-19 20.1 29.4 12.2 9.6-- 1.0 0.3---- 9.5------------
1983-07-18 21.6 27.9 15.7 9.2-- 4.3 0.3---- 0.0------------
1983-07-17 21.1 25.9 15.7 13.8-- 2.7 1.7---- 0.0------------
1983-07-16 20.8 27.1 11.7 16.6-- 1.7 1.3---- 0.0------------
1983-07-15 19.7 23.0 14.6 14.2-- 2.3 1.7---- 0.0------------
1983-07-14 17.4 20.2 15.2 14.8-- 8.0 2.0---- 6.5------------
1983-07-13 16.6 22.0 14.7 13.8-- 7.0 0.7---- 0.6------------
1983-07-12 16.6 22.0 15.0 13.1-- 7.0 1.7---- 10.4------------
1983-07-11 19.3 25.0 15.0 13.8-- 7.3 1.7---- 5.8------------
1983-07-10 20.8 26.9 14.0 10.6-- 5.3 1.3---- 2.5------------
1983-07-09 20.6 27.1 11.6 9.1-- 2.3 1.0---- 0.0------------
1983-07-08 19.1 25.4 9.0 6.1-- 2.0 0.7---- 0.0------------
1983-07-07 19.7 25.5 11.7 9.1-- 0.3 1.7---- 0.0------------
1983-07-06 21.1 26.7 10.2 7.1-- 0.3 1.3---- 0.0------------
1983-07-05 18.4 25.7 11.7 9.1-- 2.3 1.7---- 0.0------------
1983-07-04 18.8 25.9 9.7 7.1-- 2.0 0.7---- 0.0------------
1983-07-03 18.7 23.2 13.4 12.6-- 3.3 2.3---- 0.0------------
1983-07-02 18.9 24.5 14.7 10.1-- 6.7 1.0---- 27.3------------
1983-07-01 20.5 26.4 10.7 7.6-- 3.7 1.7---- 0.0------------
1983-06-30 17.1 23.0 7.7 4.4-- 3.7 1.3---- 0.0------------
1983-06-29 16.0 20.5 12.2 12.2-- 6.3 1.3---- 0.0------------
1983-06-28 18.5 22.3 16.2 14.1-- 8.0 2.0---- 7.5------------
1983-06-27 20.0 27.1 13.0 10.6-- 2.3 3.0---- 0.0------------
1983-06-26 19.7 24.1 16.2 14.6-- 5.0 3.3---- 0.0------------
1983-06-25 20.4 26.7 13.7 10.6-- 1.3 3.3---- 0.0------------
1983-06-24 17.5 25.1 4.5 2.1-- 0.0 1.0---- 0.0------------
1983-06-23 14.2 20.0 4.0 1.1-- 0.0 0.7---- 0.0------------
1983-06-22 14.9 21.5 13.5 3.6-- 0.0 3.0---- 0.0------------
1983-06-21 18.7 24.0 13.2 10.1-- 1.7 1.7---- 0.0------------
1983-06-20 18.9 23.2 15.6 14.1-- 7.0 1.7---- 1.3------------
1983-06-19 18.2 22.2 13.4 13.1-- 7.3 2.7---- 0.0------------
1983-06-18 13.3 14.3 12.2 11.6-- 8.0 4.3---- 15.7------------
1983-06-17 13.5 15.4 8.8 6.1-- 7.7 2.7---- 4.0------------
1983-06-16 12.8 16.2 11.8 12.1-- 8.0 3.3---- 0.0------------
344.5 ms

 

Źródłem pochodzenia danych jest Instytut Meteorologii i Gospodarki Wodnej – Państwowy Instytut Badawczy. Dane Instytutu Meteorologii i Gospodarki Wodnej – Państwowego Instytutu Badawczego zostały przetworzone.

Dane źródłowe można odnaleźć na stronie https://dane.imgw.pl